Time;durP1;ratioP1;P1;durP2;ratioP2;P2;SDS_P1;SDS_P2;PMS_P1;PMS_P2;Temp;Humidity;BMP_temperature;BMP_pressure;BME280_temperature;BME280_humidity;BME280_pressure;Samples;Min_cycle;Max_cycle;Signal;HPM_P1;HPM_P2
2022/03/12 00:00:50;;;;;;;5.90;4.10;;;5.20;61.00;;;;;;6132147;23;20027;-90
2022/03/12 00:03:16;;;;;;;;;;;5.20;60.80;;;;;;6133131;23;20009;-89
2022/03/12 00:05:52;;;;;;;10.40;4.78;;;5.20;61.30;;;;;;6157646;23;19912;-90
2022/03/12 00:08:20;;;;;;;11.60;4.32;;;5.30;60.90;;;;;;6136907;23;20021;-89
2022/03/12 00:10:51;;;;;;;6.82;3.88;;;5.40;61.10;;;;;;6184729;23;20021;-91
2022/03/12 00:13:21;;;;;;;9.05;3.95;;;5.70;61.30;;;;;;6136130;23;20016;-91
2022/03/12 00:15:50;;;;;;;8.50;4.18;;;5.30;61.20;;;;;;6185773;23;20024;-91
2022/03/12 00:18:20;;;;;;;6.18;4.70;;;5.20;60.90;;;;;;6160990;23;20350;-91
2022/03/12 00:20:50;;;;;;;6.75;4.00;;;5.30;61.20;;;;;;6185732;23;20406;-91
2022/03/12 00:23:18;;;;;;;7.00;3.85;;;5.30;61.20;;;;;;6184708;23;20452;-90
2022/03/12 00:25:47;;;;;;;7.28;4.32;;;5.30;61.00;;;;;;6139846;23;20079;-92
2022/03/12 00:28:12;;;;;;;6.22;4.68;;;5.60;61.90;;;;;;6170321;23;20021;-90
2022/03/12 00:30:39;;;;;;;8.93;3.85;;;5.70;60.90;;;;;;6141358;23;20028;-91
2022/03/12 00:33:05;;;;;;;11.93;5.18;;;5.30;60.90;;;;;;6168111;23;20021;-91
2022/03/12 00:35:32;;;;;;;5.93;3.95;;;5.30;60.80;;;;;;6191212;23;20027;-92
2022/03/12 00:37:57;;;;;;;;;;;5.30;60.90;;;;;;6165426;23;20040;-92
2022/03/12 00:40:23;;;;;;;5.70;3.90;;;5.50;62.00;;;;;;6161497;23;20300;-92
2022/03/12 00:42:49;;;;;;;10.80;4.50;;;5.30;61.10;;;;;;6160514;23;20052;-91
2022/03/12 00:45:15;;;;;;;9.38;4.05;;;5.20;61.80;;;;;;6185100;23;20017;-91
2022/03/12 00:47:41;;;;;;;9.57;4.45;;;5.20;61.40;;;;;;6160829;23;20017;-91
2022/03/12 00:50:07;;;;;;;6.13;4.32;;;5.10;61.60;;;;;;6161220;23;20060;-91
2022/03/12 00:52:33;;;;;;;;;;;5.10;61.40;;;;;;6185166;23;20095;-90
2022/03/12 00:54:59;;;;;;;;;;;5.40;62.40;;;;;;6159807;23;19912;-91
2022/03/12 00:57:24;;;;;;;;;;;5.90;62.70;;;;;;6184857;23;19919;-89
2022/03/12 00:59:50;;;;;;;;;;;5.10;62.00;;;;;;6182834;23;19966;-89
2022/03/12 01:02:17;;;;;;;;;;;5.10;61.70;;;;;;6184018;23;19995;-89
2022/03/12 01:04:42;;;;;;;;;;;5.10;62.00;;;;;;6183449;23;19913;-89
2022/03/12 01:07:09;;;;;;;;;;;5.10;62.10;;;;;;6183800;23;20331;-90
2022/03/12 01:09:35;;;;;;;;;;;5.70;62.30;;;;;;6183388;23;19919;-88
2022/03/12 01:12:01;;;;;;;;;;;5.20;62.50;;;;;;6183851;23;20228;-89
2022/03/12 01:14:26;;;;;;;;;;;5.80;62.20;;;;;;6184791;23;20328;-92
2022/03/12 01:16:55;;;;;;;;;;;5.20;62.30;;;;;;6185051;23;19923;-90
2022/03/12 01:19:21;;;;;;;;;;;5.50;62.30;;;;;;6160552;23;20247;-91
2022/03/12 01:21:46;;;;;;;;;;;5.70;62.30;;;;;;6185264;23;19923;-90
2022/03/12 01:24:12;;;;;;;;;;;5.50;61.90;;;;;;6159570;23;19919;-90
2022/03/12 01:26:38;;;;;;;;;;;5.20;62.30;;;;;;6183756;23;19939;-91
2022/03/12 01:29:04;;;;;;;;;;;5.80;62.80;;;;;;6160101;23;20275;-91
2022/03/12 01:31:29;;;;;;;;;;;5.20;62.20;;;;;;6184422;23;19912;-90
2022/03/12 01:33:55;;;;;;;;;;;5.30;62.20;;;;;;6183815;23;19919;-90
2022/03/12 01:36:21;;;;;;;;;;;5.20;62.40;;;;;;6185653;23;19912;-90
2022/03/12 01:38:47;;;;;;;;;;;6.70;63.00;;;;;;6185509;23;19912;-88
2022/03/12 01:41:13;;;;;;;;;;;6.10;62.40;;;;;;6160964;23;19916;-92
2022/03/12 01:43:39;;;;;;;;;;;5.80;62.90;;;;;;6135360;23;19923;-91
2022/03/12 01:46:09;;;;;;;;;;;5.20;62.60;;;;;;6162934;23;19912;-90
2022/03/12 01:48:36;;;;;;;;;;;5.70;62.50;;;;;;6162257;23;19912;-90
2022/03/12 01:51:01;;;;;;;;;;;5.10;62.60;;;;;;6166844;23;19916;-91
2022/03/12 01:53:27;;;;;;;;;;;5.10;62.70;;;;;;6163537;23;19919;-91
2022/03/12 01:55:54;;;;;;;;;;;5.10;62.00;;;;;;6165515;23;20080;-92
2022/03/12 01:58:19;;;;;;;;;;;5.10;62.40;;;;;;6166517;23;19947;-90
2022/03/12 02:00:47;;;;;;;;;;;5.20;62.10;;;;;;6168703;23;19916;-90
2022/03/12 02:03:13;;;;;;;;;;;5.20;62.30;;;;;;6166478;23;20319;-91
2022/03/12 02:05:41;;;;;;;;;;;6.40;62.70;;;;;;6186187;23;19986;-92
2022/03/12 02:08:07;;;;;;;;;;;5.30;62.60;;;;;;6189711;23;19965;-90
2022/03/12 02:10:35;;;;;;;;;;;5.30;62.40;;;;;;6142511;23;19912;-89
2022/03/12 02:13:01;;;;;;;;;;;5.30;62.50;;;;;;6170421;23;19951;-89
2022/03/12 02:15:28;;;;;;;;;;;5.20;62.60;;;;;;6170324;23;20224;-89
2022/03/12 02:17:54;;;;;;;;;;;5.20;63.20;;;;;;6146720;23;19919;-90
2022/03/12 02:20:20;;;;;;;;;;;6.00;63.20;;;;;;6166407;23;19916;-91
2022/03/12 02:22:53;;;;;;;;;;;5.20;62.60;;;;;;6186880;23;19995;-91
2022/03/12 02:25:26;;;;;;;;;;;5.20;62.70;;;;;;6171123;23;20324;-91
2022/03/12 02:27:52;;;;;;;;;;;5.20;62.70;;;;;;6194681;23;19912;-90
2022/03/12 02:30:19;;;;;;;;;;;5.20;62.50;;;;;;6169506;23;19957;-91
2022/03/12 02:32:45;;;;;;;;;;;5.20;62.70;;;;;;6171533;23;19912;-88
2022/03/12 02:35:11;;;;;;;;;;;5.50;63.00;;;;;;6173231;23;19912;-92
2022/03/12 02:37:42;;;;;;;;;;;5.10;63.30;;;;;;6143867;23;20324;-89
2022/03/12 02:40:09;;;;;;;;;;;6.00;63.40;;;;;;6166962;23;19975;-88
2022/03/12 02:42:36;;;;;;;;;;;5.10;63.30;;;;;;6164499;23;19916;-90
2022/03/12 02:45:04;;;;;;;;;;;5.10;64.00;;;;;;6186992;23;19967;-92
2022/03/12 02:47:30;;;;;;;;;;;5.00;63.20;;;;;;6161748;23;20286;-91
2022/03/12 02:49:57;;;;;;;;;;;5.00;63.70;;;;;;6187138;23;20197;-91
2022/03/12 02:52:24;;;;;;;;;;;5.00;63.60;;;;;;6162483;23;19919;-90
2022/03/12 02:54:50;;;;;;;;;;;5.00;63.70;;;;;;6161692;23;19983;-88
2022/03/12 02:57:16;;;;;;;;;;;5.50;63.80;;;;;;6189411;23;19913;-91
2022/03/12 02:59:43;;;;;;;;;;;5.00;63.80;;;;;;6132901;23;19995;-92
2022/03/12 03:02:10;;;;;;;;;;;5.20;64.30;;;;;;6109261;23;19944;-91
2022/03/12 03:04:40;;;;;;;;;;;5.20;63.60;;;;;;6108399;23;19912;-91
2022/03/12 03:07:10;;;;;;;;;;;5.00;64.20;;;;;;6108577;23;20349;-91
2022/03/12 03:09:37;;;;;;;;;;;5.00;63.60;;;;;;6109124;23;19913;-91
2022/03/12 03:12:06;;;;;;;;;;;6.00;64.70;;;;;;6158562;23;19920;-92
2022/03/12 03:14:31;;;;;;;;;;;5.00;64.50;;;;;;6109139;23;19913;-90
2022/03/12 03:17:00;;;;;;;;;;;5.00;64.00;;;;;;6131585;23;19913;-90
2022/03/12 03:19:26;;;;;;;;;;;5.40;64.00;;;;;;6163870;23;19919;-89
2022/03/12 03:21:53;;;;;;;;;;;5.00;64.00;;;;;;6124978;23;19904;-90
2022/03/12 03:24:20;;;;;;;;;;;5.00;64.10;;;;;;6169899;23;20332;-89
2022/03/12 03:26:58;;;;;;;;;;;5.30;64.60;;;;;;6117269;23;19916;-88
2022/03/12 03:29:32;;;;;;;;;;;4.90;64.00;;;;;;6135817;23;19948;-89
2022/03/12 03:32:01;;;;;;;;;;;4.90;64.60;;;;;;6163845;23;19916;-91
2022/03/12 03:34:27;;;;;;;;;;;6.10;65.00;;;;;;6134268;23;19913;-89
2022/03/12 03:36:53;;;;;;;;;;;5.90;65.00;;;;;;6116364;23;19912;-89
2022/03/12 03:39:18;;;;;;;;;;;5.40;64.60;;;;;;6146657;23;19924;-88
2022/03/12 03:41:44;;;;;;;;;;;4.90;64.40;;;;;;6118933;23;20002;-90
2022/03/12 03:44:10;;;;;;;;;;;4.90;64.70;;;;;;6146580;23;19912;-90
2022/03/12 03:46:36;;;;;;;;;;;4.80;65.00;;;;;;6153214;23;19999;-89
2022/03/12 03:49:03;;;;;;;;;;;4.80;64.30;;;;;;6137718;23;19917;-90
2022/03/12 03:51:29;;;;;;;;;;;5.50;65.60;;;;;;6158588;23;19916;-91
2022/03/12 03:53:54;;;;;;;;;;;5.50;65.40;;;;;;6159912;23;19998;-90
2022/03/12 03:56:20;;;;;;;;;;;4.80;66.00;;;;;;6157471;23;20256;-90
2022/03/12 03:58:46;;;;;;;;;;;4.70;65.60;;;;;;6161332;23;19916;-90
2022/03/12 04:01:15;;;;;;;;;;;5.60;66.30;;;;;;6136793;23;19923;-91
2022/03/12 04:03:44;;;;;;;;;;;4.70;66.00;;;;;;6161397;23;19991;-89
2022/03/12 04:06:10;;;;;;;;;;;4.60;66.20;;;;;;6161053;23;19955;-91
2022/03/12 04:08:36;;;;;;;;;;;4.60;65.70;;;;;;6162065;23;19912;-92
2022/03/12 04:11:05;;;;;;;;;;;6.10;66.80;;;;;;6136951;23;19939;-90
2022/03/12 04:13:31;;;;;;;;;;;4.50;65.90;;;;;;6161117;23;20332;-89
2022/03/12 04:16:01;;;;;;;;;;;4.50;66.30;;;;;;6137871;23;20021;-90
2022/03/12 04:18:27;;;;;;;;;;;5.00;67.30;;;;;;6137509;23;20302;-89
2022/03/12 04:20:53;;;;;;;;;;;5.10;65.90;;;;;;6162535;23;19919;-89
2022/03/12 04:23:21;;;;;;;;;;;4.70;66.30;;;;;;6139761;23;19916;-88
2022/03/12 04:25:51;;;;;;;;;;;4.30;65.90;;;;;;6164855;23;19916;-88
2022/03/12 04:28:17;;;;;;;;;;;4.70;66.50;;;;;;6138557;23;19912;-90
2022/03/12 04:30:43;;;;;;;;;;;5.90;67.00;;;;;;6162069;23;19990;-91
2022/03/12 04:33:10;;;;;;;;;;;4.20;66.80;;;;;;6186383;23;19912;-88
2022/03/12 04:35:36;;;;;;;;;;;4.20;67.10;;;;;;6161084;23;19916;-92
2022/03/12 04:38:03;;;;;;;;;;;4.10;66.40;;;;;;6160754;23;19919;-89
2022/03/12 04:40:29;;;;;;;;;;;4.10;68.30;;;;;;6160202;23;19916;-92
2022/03/12 04:42:55;;;;;;;;;;;4.10;67.40;;;;;;6134559;23;19923;-90
2022/03/12 04:45:25;;;;;;;;;;;4.00;68.20;;;;;;6160126;23;19912;-89
2022/03/12 04:47:51;;;;;;;;;;;4.00;68.10;;;;;;6160087;23;19912;-90
2022/03/12 04:50:18;;;;;;;;;;;4.00;66.80;;;;;;6184125;23;19963;-90
2022/03/12 04:52:44;;;;;;;;;;;5.10;68.60;;;;;;6163510;23;19983;-88
2022/03/12 04:55:18;;;;;;;;;;;4.00;67.40;;;;;;6162939;23;19936;-88
2022/03/12 04:57:43;;;;;;;;;;;4.00;67.70;;;;;;6137439;23;19912;-91
2022/03/12 05:00:12;;;;;;;;;;;3.90;67.90;;;;;;6159977;23;19923;-89
2022/03/12 05:02:38;;;;;;;;;;;3.90;69.40;;;;;;6164063;23;20039;-89
2022/03/12 05:05:04;;;;;;;;;;;3.90;68.50;;;;;;6161232;23;20328;-90
2022/03/12 05:07:29;;;;;;;;;;;3.90;67.90;;;;;;6185331;23;19912;-88
2022/03/12 05:09:55;;;;;;;;;;;4.30;68.80;;;;;;6160276;23;19942;-88
2022/03/12 05:12:22;;;;;;;;;;;5.40;69.50;;;;;;6163601;23;19938;-88
2022/03/12 05:14:48;;;;;;;;;;;5.30;69.50;;;;;;6175887;23;19912;-88
2022/03/12 05:17:15;;;;;;;;;;;3.90;69.40;;;;;;6154719;23;19962;-90
2022/03/12 05:19:41;;;;;;;;;;;3.90;69.10;;;;;;6169571;23;19943;-91
2022/03/12 05:22:07;;;;;;;;;;;4.40;69.60;;;;;;6137488;23;19919;-90
2022/03/12 05:24:33;;;;;;;;;;;5.20;68.40;;;;;;6185037;23;19987;-89
2022/03/12 05:26:59;;;;;;;;;;;3.90;69.90;;;;;;6158868;23;19974;-88
2022/03/12 05:29:26;;;;;;;;;;;4.00;70.50;;;;;;6159515;23;19919;-89
2022/03/12 05:31:52;;;;;;;;;;;4.00;70.40;;;;;;6160064;23;19912;-90
2022/03/12 05:34:19;;;;;;;;;;;4.00;69.10;;;;;;6188624;23;20343;-88
2022/03/12 05:36:44;;;;;;;;;;;4.00;69.30;;;;;;6166676;23;19917;-88
2022/03/12 05:39:10;;;;;;;;;;;4.00;69.50;;;;;;6181845;23;19970;-89
2022/03/12 05:41:36;;;;;;;;;;;3.90;69.60;;;;;;6146163;23;19923;-91
2022/03/12 05:44:03;;;;;;;;;;;3.90;71.00;;;;;;6162186;23;19932;-91
2022/03/12 05:46:28;;;;;;;;;;;3.80;70.70;;;;;;6162131;23;19923;-90
2022/03/12 05:48:54;;;;;;;;;;;3.80;71.90;;;;;;6162617;23;19912;-91
2022/03/12 05:51:20;;;;;;;;;;;3.80;70.60;;;;;;6143272;23;19912;-90
2022/03/12 05:53:47;;;;;;;;;;;4.50;72.00;;;;;;6148921;23;19912;-90
2022/03/12 05:56:12;;;;;;;;;;;3.90;70.70;;;;;;6152092;23;19911;-90
2022/03/12 05:58:38;;;;;;;;;;;5.00;70.60;;;;;;6142288;23;19956;-92
2022/03/12 06:01:04;;;;;;;;;;;4.60;70.90;;;;;;6138928;23;20439;-92
2022/03/12 06:03:30;;;;;;;;;;;4.00;70.80;;;;;;6139230;23;19912;-91
2022/03/12 06:05:59;;;;;;;;;;;4.40;71.20;;;;;;6168248;23;19912;-91
2022/03/12 06:08:26;;;;;;;;;;;4.00;71.20;;;;;;6205503;23;19923;-90
2022/03/12 06:10:55;;;;;;;;;;;4.10;70.00;;;;;;6210336;23;20000;-92
2022/03/12 06:13:25;;;;;;;;;;;4.40;70.60;;;;;;6193228;23;20267;-91
2022/03/12 06:16:02;;;;;;;;;;;4.00;70.90;;;;;;6163182;23;20244;-92
2022/03/12 06:18:32;;;;;;;;;;;4.10;70.40;;;;;;6158643;23;19920;-91
2022/03/12 06:20:57;;;;;;;;;;;4.10;70.90;;;;;;6138215;23;19918;-90
2022/03/12 06:23:23;;;;;;;;;;;4.10;70.60;;;;;;6161970;23;19944;-90
2022/03/12 06:25:49;;;;;;;;;;;4.10;70.60;;;;;;6188745;23;19916;-90
2022/03/12 06:28:15;;;;;;;;;;;4.10;70.10;;;;;;6193158;23;19990;-92
2022/03/12 06:30:42;;;;;;;;;;;4.20;70.20;;;;;;6162244;23;19916;-91
2022/03/12 06:33:08;;;;;;;;;;;5.10;70.30;;;;;;6162996;23;19923;-90
2022/03/12 06:35:34;;;;;;;;;;;4.40;70.30;;;;;;6144309;23;19912;-90
2022/03/12 06:37:59;;;;;;;;;;;5.60;70.50;;;;;;6147498;23;19962;-90
2022/03/12 06:40:28;;;;;;;;;;;4.30;70.30;;;;;;6173323;23;20001;-89
2022/03/12 06:42:56;;;;;;;;;;;4.80;69.70;;;;;;6145929;23;20332;-91
2022/03/12 06:45:23;;;;;;;;;;;4.30;69.70;;;;;;6145992;23;19916;-89
2022/03/12 06:47:48;;;;;;;;;;;4.30;69.20;;;;;;6143953;23;19923;-92
2022/03/12 06:50:22;;;;;;;;;;;4.70;69.40;;;;;;6163296;23;19987;-91
2022/03/12 06:52:48;;;;;;;;;;;4.30;69.60;;;;;;6138425;23;20004;-91
2022/03/12 06:55:14;;;;;;;;;;;5.90;70.80;;;;;;6138376;23;19919;-91
2022/03/12 06:57:41;;;;;;;;;;;4.40;69.40;;;;;;6141689;23;19916;-91
2022/03/12 07:00:11;;;;;;;;;;;4.30;70.20;;;;;;6140402;23;19966;-91
2022/03/12 07:02:37;;;;;;;;;;;4.40;69.70;;;;;;6166774;23;19959;-91
2022/03/12 07:05:03;;;;;;;;;;;4.50;69.90;;;;;;6166830;23;19912;-90
2022/03/12 07:07:29;;;;;;;;;;;4.60;69.60;;;;;;6144732;23;19916;-89
2022/03/12 07:09:54;;;;;;;;;;;4.60;69.80;;;;;;6156948;23;19919;-90
2022/03/12 07:12:20;;;;;;;;;;;4.60;70.00;;;;;;6145783;23;19916;-92
2022/03/12 07:14:46;;;;;;;;;;;4.80;70.00;;;;;;6167901;23;19919;-91
2022/03/12 07:17:12;;;;;;;;;;;5.10;70.40;;;;;;6141305;23;19979;-92
2022/03/12 07:19:37;;;;;;;;;;;6.10;70.60;;;;;;6139357;23;19919;-90
2022/03/12 07:22:03;;;;;;;;;;;5.50;70.70;;;;;;6163535;23;19916;-90
2022/03/12 07:24:29;;;;;;;;;;;5.00;70.20;;;;;;6115825;23;19912;-90
2022/03/12 07:26:55;;;;;;;;;;;4.90;69.70;;;;;;6139934;23;20264;-89
2022/03/12 07:29:20;;;;;;;;;;;4.90;70.40;;;;;;6165040;23;19919;-90
2022/03/12 07:31:46;;;;;;;;;;;5.00;70.90;;;;;;6140998;23;19912;-90
2022/03/12 07:34:12;;;;;;;;;;;4.90;70.00;;;;;;6168943;23;19920;-89
2022/03/12 07:36:37;;;;;;;;;;;4.80;69.60;;;;;;6176439;23;19912;-90
2022/03/12 07:39:03;;;;;;;;;;;4.70;70.00;;;;;;6156899;23;19986;-92
2022/03/12 07:41:31;;;;;;;;;;;4.70;70.10;;;;;;6140409;23;19950;-91
2022/03/12 07:43:57;;;;;;;;;;;5.70;70.90;;;;;;6191286;23;19916;-90
2022/03/12 07:46:23;;;;;;;;;;;6.40;70.90;;;;;;6165160;23;19919;-91
2022/03/12 07:48:49;;;;;;;;;;;6.10;71.00;;;;;;6139839;23;19915;-90
2022/03/12 07:51:14;;;;;;;;;;;4.80;70.80;;;;;;6136167;23;19912;-89
2022/03/12 07:53:40;;;;;;;;;;;5.50;71.80;;;;;;6112358;23;19991;-88
2022/03/12 07:56:07;;;;;;;;;;;5.00;70.70;;;;;;6161327;23;19936;-89
2022/03/12 07:58:33;;;;;;;;;;;5.10;71.70;;;;;;6148333;23;19916;-87
2022/03/12 08:00:59;;;;;;;;;;;5.20;71.20;;;;;;6145533;23;19912;-90
2022/03/12 08:03:25;;;;;;;;;;;5.30;70.60;;;;;;6171483;23;19931;-89
2022/03/12 08:05:51;;;;;;;;;;;5.50;70.70;;;;;;6154712;23;19913;-89
2022/03/12 08:08:17;;;;;;;;;;;5.90;70.50;;;;;;6153589;23;19916;-89
2022/03/12 08:13:29;;;;;;;;;;;5.90;69.50;;;;;;6172996;23;19924;-90
2022/03/12 08:15:55;;;;;;;;;;;6.00;69.80;;;;;;6142965;23;20287;-90
2022/03/12 08:18:22;;;;;;;;;;;6.60;69.50;;;;;;6139758;23;19912;-90
2022/03/12 08:20:48;;;;;;;;;;;6.30;68.80;;;;;;6163760;23;19920;-92
2022/03/12 08:23:14;;;;;;;;;;;6.40;69.90;;;;;;6190685;23;19916;-91
2022/03/12 08:25:39;;;;;;;;;;;6.50;68.40;;;;;;6140264;23;20240;-91
2022/03/12 08:28:05;;;;;;;;;;;6.70;68.60;;;;;;6151195;23;19912;-91
2022/03/12 08:30:33;;;;;;;;;;;6.80;68.80;;;;;;6166911;23;19979;-92
2022/03/12 08:32:58;;;;;;;;;;;6.90;69.10;;;;;;6167336;23;19916;-91
2022/03/12 08:35:24;;;;;;;;;;;7.00;68.50;;;;;;6166722;23;19994;-92
2022/03/12 08:37:50;;;;;;;;;;;7.10;69.20;;;;;;6166678;23;19936;-91
2022/03/12 08:40:16;;;;;;;;;;;7.10;68.60;;;;;;6134989;23;19996;-93
2022/03/12 08:42:42;;;;;;;;;;;7.30;68.60;;;;;;6186762;23;19916;-91
2022/03/12 08:45:10;;;;;;;;;;;7.50;68.70;;;;;;6139626;23;19916;-93
2022/03/12 08:47:36;;;;;;;;;;;7.40;68.50;;;;;;6165062;23;19913;-91
2022/03/12 08:50:02;;;;;;;;;;;7.60;69.00;;;;;;6138395;23;20236;-91
2022/03/12 08:52:28;;;;;;;;;;;7.70;68.30;;;;;;6138849;23;20288;-92
2022/03/12 08:54:54;;;;;;;;;;;7.80;68.70;;;;;;6141487;23;19916;-92
2022/03/12 08:57:20;;;;;;;;;;;8.00;68.20;;;;;;6166427;23;20225;-91
2022/03/12 08:59:46;;;;;;;;;;;8.10;68.90;;;;;;6142480;23;20217;-92
2022/03/12 09:02:12;;;;;;;;;;;8.10;68.20;;;;;;6142546;23;19982;-91
2022/03/12 09:04:38;;;;;;;;;;;8.20;68.10;;;;;;6137077;23;20336;-89
2022/03/12 09:07:04;;;;;;;;;;;8.30;67.70;;;;;;6139057;23;19912;-91
2022/03/12 09:09:30;;;;;;;;;;;8.30;68.40;;;;;;6167644;23;20001;-90
2022/03/12 09:11:56;;;;;;;;;;;8.20;68.20;;;;;;6145643;23;19912;-91
2022/03/12 09:14:22;;;;;;;;;;;8.50;68.30;;;;;;6141692;23;19921;-91
2022/03/12 09:16:48;;;;;;;;;;;8.60;68.30;;;;;;6161007;23;19916;-91
2022/03/12 09:19:13;;;;;;;;;;;8.70;68.30;;;;;;6136985;23;19916;-92
2022/03/12 09:21:39;;;;;;;;;;;8.70;68.20;;;;;;6139940;23;20321;-92
2022/03/12 09:24:06;;;;;;;;;;;8.80;68.60;;;;;;6139117;23;19920;-92
2022/03/12 09:26:32;;;;;;;;;;;8.90;68.50;;;;;;6138834;23;19923;-91
2022/03/12 09:28:57;;;;;;;;;;;9.00;69.30;;;;;;6164423;23;20282;-92
2022/03/12 09:31:24;;;;;;;;;;;10.00;69.00;;;;;;6170063;23;19919;-90
2022/03/12 09:33:49;;;;;;;;;;;9.30;69.20;;;;;;6134238;23;19919;-90
2022/03/12 09:36:16;;;;;;;;;;;9.50;68.90;;;;;;6174956;23;19916;-90
2022/03/12 09:38:42;;;;;;;;;;;9.60;68.60;;;;;;6139835;23;19935;-91
2022/03/12 09:41:07;;;;;;;;;;;9.70;68.50;;;;;;6187211;23;19916;-91
2022/03/12 09:43:34;;;;;;;;;;;9.80;68.60;;;;;;6164483;23;19919;-92
2022/03/12 09:46:00;;;;;;;;;;;10.00;68.40;;;;;;6137856;23;19920;-90
2022/03/12 09:48:25;;;;;;;;;;;10.20;68.30;;;;;;6161686;23;19915;-89
2022/03/12 09:50:51;;;;;;;;;;;10.30;67.40;;;;;;6135551;23;19919;-91
2022/03/12 09:53:17;;;;;;;;;;;10.40;68.30;;;;;;6161594;23;19920;-88
2022/03/12 09:55:42;;;;;;;;;;;10.60;68.20;;;;;;6203684;23;20491;-90
2022/03/12 09:58:08;;;;;;;;;;;10.70;67.80;;;;;;6160767;23;20338;-91
2022/03/12 10:00:34;;;;;;;;;;;10.80;68.40;;;;;;6160293;23;19923;-90
2022/03/12 10:03:00;;;;;;;;;;;10.90;68.80;;;;;;6161386;23;19916;-89
2022/03/12 10:05:27;;;;;;;;;;;11.10;68.90;;;;;;6140974;23;19987;-89
2022/03/12 10:07:53;;;;;;;;;;;11.20;69.90;;;;;;6143008;23;19912;-91
2022/03/12 10:10:22;;;;;;;;;;;11.30;70.30;;;;;;6145797;23;19935;-90
2022/03/12 10:12:49;;;;;;;;;;;11.40;70.60;;;;;;6139903;23;19966;-90
2022/03/12 10:15:15;;;;;;;;;;;11.50;71.10;;;;;;6161794;23;19963;-89
2022/03/12 10:17:41;;;;;;;;;;;11.60;70.10;;;;;;6138266;23;19916;-90
2022/03/12 10:20:07;;;;;;;;;;;11.70;70.80;;;;;;6137233;23;19912;-90
2022/03/12 10:22:33;;;;;;;;;;;11.80;71.10;;;;;;6162466;23;19916;-88
2022/03/12 10:24:59;;;;;;;;;;;11.90;71.40;;;;;;6173264;23;19956;-89
2022/03/12 10:27:24;;;;;;;;;;;12.00;71.60;;;;;;6154997;23;19952;-88
2022/03/12 10:29:51;;;;;;;;;;;12.10;70.60;;;;;;6162673;23;19952;-86
2022/03/12 10:32:24;;;;;;;;;;;12.20;71.30;;;;;;6188750;23;19988;-90
2022/03/12 10:34:52;;;;;;;;;;;12.30;71.60;;;;;;6106483;23;19918;-90
2022/03/12 10:37:18;;;;;;;;;;;12.30;71.60;;;;;;6107465;23;19959;-90
2022/03/12 10:39:45;;;;;;;;;;;12.20;71.70;;;;;;6160291;23;20334;-90
2022/03/12 10:42:12;;;;;;;;;;;12.30;72.10;;;;;;6187645;23;19951;-90
2022/03/12 10:44:39;;;;;;;;;;;12.20;72.90;;;;;;6137539;23;20243;-93
2022/03/12 10:47:25;;;;;;;;;;;12.30;73.00;;;;;;6138472;23;19966;-89
2022/03/12 10:49:58;;;;;;;;;;;12.40;73.40;;;;;;6167046;23;19912;-90
2022/03/12 10:52:27;;;;;;;;;;;12.50;74.10;;;;;;6173867;23;19935;-89
2022/03/12 10:54:53;;;;;;;;;;;12.60;72.70;;;;;;6163978;23;19967;-90
2022/03/12 10:57:19;;;;;;;;;;;12.60;73.60;;;;;;6113901;23;19916;-91
2022/03/12 10:59:45;;;;;;;;;;;12.50;74.00;;;;;;6140442;23;20451;-88
2022/03/12 11:02:11;;;;;;;;;;;12.50;74.30;;;;;;6166074;23;19916;-89
2022/03/12 11:04:37;;;;;;;;;;;12.50;74.20;;;;;;6146091;23;19912;-90
2022/03/12 11:07:24;;;;;;;;;;;12.60;74.90;;;;;;6109257;23;19920;-88
2022/03/12 11:09:50;;;;;;;;;;;12.60;74.70;;;;;;6156930;23;19913;-89
2022/03/12 11:12:31;;;;;;;;;;;12.80;75.10;;;;;;6084457;23;19987;-89
2022/03/12 11:15:05;;;;;;;;;;;12.80;75.00;;;;;;6157292;23;20272;-88
2022/03/12 11:17:50;;;;;;;;;;;12.80;76.40;;;;;;6132214;23;19913;-89
2022/03/12 11:20:22;;;;;;;;;;;12.90;76.50;;;;;;6132823;23;19924;-89
2022/03/12 11:22:49;;;;;;;;;;;13.00;76.50;;;;;;6138989;23;19916;-88
2022/03/12 11:25:19;;;;;;;;;;;13.20;76.10;;;;;;6140015;23;19923;-89
2022/03/12 11:27:49;;;;;;;;;;;13.20;77.20;;;;;;6139828;23;19916;-87
2022/03/12 11:30:20;;;;;;;;;;;13.30;76.80;;;;;;6089925;23;19936;-89
2022/03/12 11:32:48;;;;;;;;;;;13.50;76.70;;;;;;6139561;23;19916;-89
2022/03/12 11:35:20;;;;;;;;;;;13.50;77.50;;;;;;6091107;23;19916;-88
2022/03/12 11:37:45;;;;;;;;;;;13.70;75.80;;;;;;6158435;23;20240;-89
2022/03/12 11:40:19;;;;;;;;;;;13.80;76.70;;;;;;6158207;23;19992;-89
2022/03/12 11:42:45;;;;;;;;;;;13.90;76.30;;;;;;6132528;23;19921;-89
2022/03/12 11:45:15;;;;;;;;;;;14.00;76.60;;;;;;6108678;23;20244;-89
2022/03/12 11:47:42;;;;;;;;;;;13.90;76.90;;;;;;6108491;23;19912;-89
2022/03/12 11:50:12;;;;;;;;;;;14.00;76.70;;;;;;6131319;23;20139;-89
2022/03/12 11:52:37;;;;;;;;;;;14.00;77.90;;;;;;6132920;23;19912;-89
2022/03/12 11:55:05;;;;;;;;;;;14.10;78.50;;;;;;6133947;23;19913;-89
2022/03/12 11:57:34;;;;;;;;;;;14.30;77.50;;;;;;6131875;23;19912;-89
2022/03/12 12:00:00;;;;;;;;;;;14.40;78.60;;;;;;6130895;23;20379;-89
2022/03/12 12:02:30;;;;;;;;;;;14.50;78.50;;;;;;6160904;23;20343;-89
2022/03/12 12:05:02;;;;;;;;;;;14.50;77.90;;;;;;6138224;23;19919;-90
2022/03/12 12:07:30;;;;;;;;;;;14.40;79.10;;;;;;6137646;23;19920;-90
2022/03/12 12:09:55;;;;;;;;;;;14.40;78.50;;;;;;6161821;23;19992;-89
2022/03/12 12:12:27;;;;;;;;;;;14.40;78.70;;;;;;6162363;23;19912;-90
2022/03/12 12:14:55;;;;;;;;;;;14.40;78.50;;;;;;6123360;23;19912;-86
2022/03/12 12:17:20;;;;;;;;;;;14.50;79.10;;;;;;6169288;23;20320;-89
2022/03/12 12:19:46;;;;;;;;;;;14.70;79.70;;;;;;6161974;23;19912;-88
2022/03/12 12:22:13;;;;;;;;;;;14.90;78.90;;;;;;6112875;23;20333;-89
2022/03/12 12:24:39;;;;;;;;;;;15.10;78.70;;;;;;6140629;23;19916;-91
2022/03/12 12:27:06;;;;;;;;;;;15.10;77.30;;;;;;6167955;23;19919;-88
2022/03/12 12:29:49;;;;;;;;;;;15.20;77.80;;;;;;6165639;23;19967;-89
2022/03/12 12:32:16;;;;;;;;;;;15.20;77.70;;;;;;6169366;23;19916;-88
2022/03/12 12:35:01;;;;;;;;;;;15.20;77.50;;;;;;6143963;23;19919;-89
2022/03/12 12:37:39;;;;;;;;;;;15.10;77.60;;;;;;6170752;23;19912;-88
2022/03/12 12:40:12;;;;;;;;;;;15.00;77.90;;;;;;6147751;23;19911;-87
2022/03/12 12:42:42;;;;;;;;;;;15.00;78.40;;;;;;6170989;23;19927;-90
2022/03/12 12:45:14;;;;;;;;;;;15.10;78.60;;;;;;6140342;23;19944;-89
2022/03/12 12:47:43;;;;;;;;;;;15.20;79.20;;;;;;6164805;23;19919;-89
2022/03/12 12:50:20;;;;;;;;;;;15.40;78.30;;;;;;6138220;23;19912;-89
2022/03/12 12:53:05;;;;;;;;;;;15.50;78.30;;;;;;6186749;23;19934;-88
2022/03/12 12:55:34;;;;;;;;;;;15.60;77.50;;;;;;6162091;23;19992;-89
2022/03/12 12:58:00;;;;;;;;;;;15.60;76.30;;;;;;6137321;23;19912;-88
2022/03/12 13:00:28;;;;;;;;;;;15.50;76.70;;;;;;6146018;23;19976;-88
2022/03/12 13:02:57;;;;;;;;;;;15.40;76.20;;;;;;6145612;23;20332;-88
2022/03/12 13:05:42;;;;;;;;;;;15.30;76.10;;;;;;6163688;23;19912;-88
2022/03/12 13:08:08;;;;;;;;;;;15.20;77.00;;;;;;6139730;23;19912;-88
2022/03/12 13:10:33;;;;;;;;;;;15.30;77.10;;;;;;6162588;23;20247;-87
2022/03/12 13:13:09;;;;;;;;;;;15.40;76.10;;;;;;6162623;23;19959;-89
2022/03/12 13:15:38;;;;;;;;;;;15.30;76.20;;;;;;6136756;23;20358;-89
2022/03/12 13:18:19;;;;;;;;;;;15.40;77.10;;;;;;6136403;23;20247;-87
2022/03/12 13:20:46;;;;;;;;;;;15.50;76.90;;;;;;6138182;23;20353;-87
2022/03/12 13:23:12;;;;;;;;;;;15.70;77.50;;;;;;6162906;23;20224;-88
2022/03/12 13:26:00;;;;;;;;;;;15.90;77.00;;;;;;6170739;23;20106;-85
2022/03/12 13:28:36;;;;;;;;;;;16.10;76.70;;;;;;6153180;23;20132;-87
2022/03/12 13:31:13;;;;;;;;;;;16.40;76.50;;;;;;6166505;23;19912;-89
2022/03/12 13:33:39;;;;;;;;;;;16.50;75.60;;;;;;6136710;23;19931;-89
2022/03/12 13:36:05;;;;;;;;;;;16.50;75.50;;;;;;6135692;23;19987;-88
2022/03/12 13:38:30;;;;;;;;;;;16.50;75.20;;;;;;6135407;23;20291;-90
2022/03/12 13:40:56;;;;;;;;;;;16.50;75.60;;;;;;6135300;23;19940;-89
2022/03/12 13:43:22;;;;;;;;;;;16.60;74.20;;;;;;6162679;23;19983;-88
2022/03/12 13:46:01;;;;;;;;;;;16.60;74.90;;;;;;6162444;23;19947;-91
2022/03/12 13:48:30;;;;;;;;;;;16.90;75.60;;;;;;6162024;23;20228;-88
2022/03/12 13:50:56;;;;;;;;;;;17.10;72.50;;;;;;6164394;23;20035;-87
2022/03/12 13:53:27;;;;;;;;;;;17.30;72.90;;;;;;6170166;23;19987;-87
2022/03/12 13:56:00;;;;;;;;;;;17.40;73.10;;;;;;6137571;23;19912;-86
2022/03/12 13:58:29;;;;;;;;;;;17.20;72.80;;;;;;6163051;23;19923;-84
2022/03/12 14:00:57;;;;;;;;;;;17.10;76.00;;;;;;6160305;23;19916;-83
2022/03/12 14:03:23;;;;;;;;;;;17.20;76.30;;;;;;6160498;23;19916;-90
2022/03/12 14:05:50;;;;;;;;;;;17.30;72.10;;;;;;6143925;23;19927;-88
2022/03/12 14:08:20;;;;;;;;;;;17.30;73.90;;;;;;6145842;23;19966;-90
2022/03/12 14:10:46;;;;;;;;;;;17.20;72.90;;;;;;6145361;23;19922;-89
2022/03/12 14:13:11;;;;;;;;;;;17.10;73.70;;;;;;6171398;23;19943;-89
2022/03/12 14:15:37;;;;;;;;;;;16.90;72.20;;;;;;6147369;23;19986;-90
2022/03/12 14:18:07;;;;;;;;;;;17.00;73.90;;;;;;6171272;23;19916;-88
2022/03/12 14:20:36;;;;;;;;;;;17.10;73.80;;;;;;6169581;23;19920;-90
2022/03/12 14:23:03;;;;;;;;;;;17.30;73.70;;;;;;6147858;23;19976;-90
2022/03/12 14:25:29;;;;;;;;;;;17.30;72.50;;;;;;6155649;23;19916;-86